메인 페이지
METAR-TAF:

METAR-TAF

공항 :

El Palmar

산타아나, 엘살바도르

위도: 13-59N, 경도: 089-34W, 고도: 725m

현재 날씨관측

예보는 8 시간 17분 전, 23:50시(UTC)에 발표되었습니다.
3kt
온도 33°C
습도 49%
기압 1014 hPa
시정 10km 이상
고도 3300ft 상공 구름 조금

METAR: MSSA 192350Z 09003KT 9999 FEW033 33/21 Q1013 A2993

시각: 02:07 (08:07 UTC)


TAF: 누락

4,000개 이상의 공항 관측 자료 및 예보 (METAR 및 TAF 보고).

지도상에서 검색 가능한 기상관측소가 노란 점과 빨간 점으로 표시되어 있습니다.

기상관측소 명을 보려면 표시 위로 마우스를 이동하세요.

날씨 관측과 예보를 보려면 클릭하세요.

지도 변경 : 확대하려면 엑스 표시가 있는 녹색 버튼, 축소하려면 빼기 표시가 있는 녹색 버튼, 다음 페이지의 지도를 보려면 녹색 화살표를 클릭하세요.


METAR-TAF: